UTST

Details ICAO UTST (TMJ)
Name TERMEZ
Region Tajikistan, Turkmenistan and Uzbekistan
Timezone Asia/Samarkand (UTC+5.0)
Plans Departing 7
Arriving 12
Stats Elevation 1,027 ft / 313 m (AMSL)
Location 37.286667° 67.309167°
Runways 1
Magnetic Variation 4.169° E
Sunrise 2018-05-23 00:17:59 UTC / 2018-05-23 05:17:59 Local
Sunset 2018-05-23 14:39:52 UTC / 2018-05-23 19:39:52 Local
Advertisement - Login to hide

Runways

ID Width Length Bearing (true) Bearing (mag) Surface Threshold Offset Overrun Length
07 138 ft / 42 m 9,510 ft / 2,899 m 75.17° 71.00° Concrete 0 ft / 0 m 164 ft / 50 m
25 138 ft / 42 m 9,510 ft / 2,899 m 255.19° 251.02° Concrete 0 ft / 0 m 164 ft / 50 m

Approach Navaids

Runway Type Ident Frequency Range Bearing (true) Bearing (mag) Slope Elevation
25 Localiser INO 110.30 MHz 18 nm / 33 km 254.33° 250.16° - 1,027 ft / 313 m (AMSL)
25 Glidescope INO 110.30 MHz 10 nm / 19 km 255.18° 251.01° 2.40° 1,027 ft / 313 m (AMSL)

Map

Weather


0- 5 10 15 20 25 30 35+ Temperature / ° C

Clouds and Precipitation
Forecast for 2018-05-23 06:00 UTC. Updated 4 hours ago

Ground ~20,000 ft ~40,000 ft Winds

METAR

UTST 230900Z 26004KT 9999 SCT060TCU 32/04 Q1017 R88/CLRD70 NOSIG

TAF

TAF UTST 230500Z 2306/2406 09006G16KT 6000 SCT060CB BKN100 TEMPO 2306/2309 SCT040 BKN060CB PROB40 TEMPO 2309/2320 VRB19G29KT 3000 -TSRA SQ BKN050CB

Frequencies

Tower 118.60 MHz TWR
Warning: Do not use this data for real-world aviation or navigation. No guarantee of current accuracy is given.